createdAt,value
2018-03-07T00:03:20.856Z,91.00
2018-03-07T00:07:25.895Z,91.50
2018-03-07T00:11:31.150Z,92.20
2018-03-07T00:15:34.676Z,92.20
2018-03-07T00:19:37.824Z,92.60
2018-03-07T00:23:40.987Z,92.80
2018-03-07T00:27:44.115Z,93.10
2018-03-07T00:31:47.625Z,92.80
2018-03-07T00:35:50.821Z,92.50
2018-03-07T00:39:54.694Z,92.40
2018-03-07T00:43:58.699Z,92.60
2018-03-07T00:48:02.219Z,92.50
2018-03-07T00:52:05.961Z,93.00
2018-03-07T00:56:10.378Z,93.40
2018-03-07T01:00:13.651Z,93.70
2018-03-07T01:04:17.655Z,94.00
2018-03-07T01:08:22.523Z,94.10
2018-03-07T01:12:26.694Z,94.00
2018-03-07T01:16:30.219Z,93.70
2018-03-07T01:20:34.106Z,94.00
2018-03-07T01:24:37.253Z,94.50
2018-03-07T01:28:40.363Z,94.20
2018-03-07T01:32:45.262Z,93.80
2018-03-07T01:36:49.141Z,93.40
2018-03-07T01:40:56.692Z,93.30
2018-03-07T01:44:59.812Z,93.50
2018-03-07T01:49:03.427Z,93.50
2018-03-07T01:53:08.691Z,94.30
2018-03-07T01:57:12.617Z,93.50
2018-03-07T02:01:16.498Z,93.90
2018-03-07T02:05:20.116Z,93.90
2018-03-07T02:09:23.228Z,93.80
2018-03-07T02:13:26.676Z,94.20
2018-03-07T02:17:30.579Z,94.40
2018-03-07T02:21:35.714Z,94.30
2018-03-07T02:25:41.057Z,93.70
2018-03-07T02:29:45.049Z,94.20
2018-03-07T02:33:48.716Z,94.00
2018-03-07T02:37:52.299Z,93.60
2018-03-07T02:41:55.817Z,93.60
2018-03-07T02:45:59.722Z,94.00
2018-03-07T02:50:02.855Z,94.20
2018-03-07T02:54:06.840Z,94.50
2018-03-07T02:58:12.313Z,94.60
2018-03-07T03:02:15.476Z,94.30
2018-03-07T03:06:19.038Z,94.00
2018-03-07T03:10:22.966Z,93.80
2018-03-07T03:14:26.493Z,93.70
2018-03-07T03:18:30.023Z,93.70
2018-03-07T03:22:33.143Z,93.70
2018-03-07T03:26:37.155Z,93.60
2018-03-07T03:30:41.020Z,94.10
2018-03-07T03:34:44.645Z,94.00
2018-03-07T03:38:47.791Z,94.20
2018-03-07T03:42:51.020Z,94.90
2018-03-07T03:46:54.532Z,94.90
2018-03-07T03:50:58.621Z,95.10
2018-03-07T03:55:02.576Z,94.60
2018-03-07T04:03:14.005Z,94.50
2018-03-07T04:07:17.622Z,94.70
2018-03-07T04:11:21.618Z,94.80
2018-03-07T04:15:25.148Z,94.70
2018-03-07T04:19:29.061Z,94.00
2018-03-07T04:23:32.173Z,93.80
2018-03-07T04:27:35.735Z,94.80
2018-03-07T04:31:38.857Z,94.70
2018-03-07T04:35:43.086Z,95.10
2018-03-07T04:39:46.960Z,95.50
2018-03-07T04:43:50.766Z,95.30
2018-03-07T04:47:53.879Z,95.20
2018-03-07T04:51:57.712Z,94.50
2018-03-07T04:56:01.216Z,94.70
2018-03-07T05:00:04.848Z,94.30
2018-03-07T05:04:08.737Z,94.90
2018-03-07T05:08:12.752Z,95.00
2018-03-07T05:12:17.232Z,94.20
2018-03-07T05:16:20.852Z,94.70
2018-03-07T05:20:24.367Z,95.30
2018-03-07T05:24:27.945Z,95.50
2018-03-07T05:28:31.808Z,96.00
2018-03-07T05:32:37.642Z,96.20
2018-03-07T05:36:41.157Z,95.00
2018-03-07T05:40:45.164Z,95.40
2018-03-07T05:44:49.061Z,95.60
2018-03-07T05:48:52.994Z,96.10
2018-03-07T05:52:57.043Z,96.40
2018-03-07T05:57:00.604Z,96.70
2018-03-07T06:01:03.734Z,97.10
2018-03-07T06:05:07.291Z,97.20
2018-03-07T06:09:11.191Z,97.30
2018-03-07T06:13:15.182Z,95.90
2018-03-07T06:17:19.166Z,94.80
2018-03-07T06:21:22.699Z,95.70
2018-03-07T06:25:26.598Z,96.50
2018-03-07T06:29:29.845Z,95.50
2018-03-07T06:33:32.999Z,95.00
2018-03-07T06:37:37.014Z,95.00
2018-03-07T06:41:41.296Z,95.00
2018-03-07T06:45:45.527Z,94.70
2018-03-07T06:49:48.642Z,96.00
2018-03-07T06:53:51.798Z,96.50
2018-03-07T06:57:55.300Z,96.90
2018-03-07T07:01:58.866Z,97.20
2018-03-07T07:06:02.391Z,95.80
2018-03-07T07:10:05.526Z,96.10
2018-03-07T07:14:08.655Z,95.50
2018-03-07T07:18:13.121Z,95.60
2018-03-07T07:22:16.647Z,94.60
2018-03-07T07:26:21.043Z,94.80
2018-03-07T07:30:24.942Z,95.10
2018-03-07T07:34:28.903Z,95.60
2018-03-07T07:38:32.396Z,96.00
2018-03-07T07:42:35.555Z,95.60
2018-03-07T07:46:39.436Z,95.30
2018-03-07T07:50:43.390Z,95.30
2018-03-07T07:54:53.174Z,94.60
2018-03-07T07:58:56.326Z,94.60
2018-03-07T08:02:59.841Z,95.20
2018-03-07T08:07:03.107Z,95.70
2018-03-07T08:11:06.619Z,96.10
2018-03-07T08:15:10.542Z,96.30
2018-03-07T08:19:14.432Z,95.80
2018-03-07T08:23:17.605Z,96.50
2018-03-07T08:27:21.265Z,95.80
2018-03-07T08:31:24.419Z,95.70
2018-03-07T08:35:27.944Z,95.20
2018-03-07T08:39:31.865Z,95.80
2018-03-07T08:43:35.386Z,95.40
2018-03-07T08:47:39.898Z,94.30
2018-03-07T08:51:43.791Z,94.50
2018-03-07T08:55:46.928Z,94.20
2018-03-07T08:59:50.943Z,93.30
2018-03-07T09:03:54.887Z,92.80
2018-03-07T09:07:58.768Z,93.30
2018-03-07T09:12:02.679Z,93.90
2018-03-07T09:16:06.598Z,94.40
2018-03-07T09:20:09.761Z,94.20
2018-03-07T09:24:12.864Z,94.70
2018-03-07T09:28:16.031Z,95.20
2018-03-07T09:32:19.904Z,96.00
2018-03-07T09:36:23.916Z,96.10
2018-03-07T09:40:27.437Z,96.10
2018-03-07T09:44:30.627Z,96.20
2018-03-07T09:48:34.530Z,96.10
2018-03-07T09:52:37.681Z,96.40
2018-03-07T09:56:41.204Z,96.50
2018-03-07T10:00:45.222Z,96.20
2018-03-07T10:04:49.134Z,95.70
2018-03-07T10:08:53.420Z,95.30
2018-03-07T10:12:56.554Z,96.20
2018-03-07T10:17:00.159Z,95.80
2018-03-07T10:21:03.665Z,95.40
2018-03-07T10:25:07.209Z,95.60
2018-03-07T10:29:11.120Z,95.50
2018-03-07T10:33:20.324Z,95.10
2018-03-07T10:37:24.224Z,95.20
2018-03-07T10:41:28.149Z,92.60
2018-03-07T10:45:31.681Z,91.50
2018-03-07T10:49:35.208Z,93.00
2018-03-07T10:53:39.099Z,92.80
2018-03-07T10:57:43.016Z,92.40
2018-03-07T11:01:46.142Z,93.00
2018-03-07T11:05:49.676Z,93.00
2018-03-07T11:09:53.557Z,92.30
2018-03-07T11:13:57.773Z,91.90
2018-03-07T11:18:01.319Z,92.90
2018-03-07T11:22:04.744Z,91.60
2018-03-07T11:26:08.253Z,92.90
2018-03-07T11:30:12.311Z,92.60
2018-03-07T11:34:16.402Z,91.70
2018-03-07T11:38:19.926Z,91.00
2018-03-07T11:42:23.429Z,91.80
2018-03-07T11:46:27.336Z,90.70
2018-03-07T11:50:31.420Z,90.70
2018-03-07T11:54:35.900Z,90.70
2018-03-07T11:58:39.407Z,91.30
2018-03-07T12:02:42.945Z,90.50
2018-03-07T12:06:46.067Z,87.70
2018-03-07T12:10:50.210Z,89.20
2018-03-07T12:14:54.084Z,90.10
2018-03-07T12:18:57.315Z,87.80
2018-03-07T12:23:00.434Z,81.50
2018-03-07T12:27:04.334Z,84.90
2018-03-07T12:31:07.845Z,82.80
2018-03-07T12:35:11.740Z,82.00
2018-03-07T12:39:15.848Z,83.30
2018-03-07T12:43:19.391Z,82.20
2018-03-07T12:47:22.490Z,83.10
2018-03-07T12:51:33.918Z,84.60
2018-03-07T12:55:37.016Z,84.70
2018-03-07T12:59:40.999Z,84.20
2018-03-07T13:03:44.986Z,83.90
2018-03-07T13:07:48.925Z,83.60
2018-03-07T13:11:52.029Z,81.60
2018-03-07T13:15:56.119Z,82.00
2018-03-07T13:19:59.630Z,81.00
2018-03-07T13:24:06.948Z,82.70
2018-03-07T13:28:10.465Z,82.60
2018-03-07T13:32:13.684Z,83.50
2018-03-07T13:36:17.568Z,84.40
2018-03-07T13:40:21.098Z,85.80
2018-03-07T13:44:24.608Z,86.50
2018-03-07T13:48:28.750Z,85.60
2018-03-07T13:52:32.634Z,84.80
2018-03-07T13:56:38.449Z,82.40
2018-03-07T14:00:42.359Z,83.40
2018-03-07T14:04:45.939Z,84.00
2018-03-07T14:08:49.076Z,84.40
2018-03-07T14:12:53.181Z,84.00
2018-03-07T14:16:57.174Z,85.40
2018-03-07T14:21:00.304Z,84.90
2018-03-07T14:25:03.816Z,83.70
2018-03-07T14:29:07.738Z,82.40
2018-03-07T14:33:11.241Z,82.30
2018-03-07T14:37:15.153Z,81.30
2018-03-07T14:41:18.278Z,80.50
2018-03-07T14:45:21.810Z,79.60
2018-03-07T14:49:25.676Z,81.40
2018-03-07T14:53:28.902Z,80.60
2018-03-07T14:57:32.792Z,80.40
2018-03-07T15:01:36.324Z,81.00
2018-03-07T15:05:40.484Z,82.50
2018-03-07T15:09:44.046Z,82.60
2018-03-07T15:13:47.563Z,82.40
2018-03-07T15:17:51.079Z,81.40
2018-03-07T15:21:54.998Z,81.50
2018-03-07T15:25:58.527Z,81.70
2018-03-07T15:30:02.454Z,82.40
2018-03-07T15:34:06.001Z,82.60
2018-03-07T15:38:09.505Z,83.40
2018-03-07T15:42:13.117Z,82.50
2018-03-07T15:46:16.989Z,83.50
2018-03-07T15:50:20.529Z,83.10
2018-03-07T15:54:24.421Z,83.90
2018-03-07T15:58:28.497Z,84.70
2018-03-07T16:02:37.334Z,84.20
2018-03-07T16:06:40.572Z,83.60
2018-03-07T16:10:44.467Z,83.60
2018-03-07T16:14:48.450Z,82.40
2018-03-07T16:18:52.437Z,83.10
2018-03-07T16:22:55.761Z,83.10
2018-03-07T16:27:00.575Z,83.30
2018-03-07T16:31:04.206Z,83.50
2018-03-07T16:35:07.321Z,82.60
2018-03-07T16:39:15.105Z,82.70
2018-03-07T16:43:19.704Z,84.80
2018-03-07T16:47:29.908Z,86.30
2018-03-07T16:51:33.854Z,85.90
2018-03-07T16:55:37.008Z,86.60
2018-03-07T16:59:40.941Z,87.50
2018-03-07T17:03:44.462Z,86.50
2018-03-07T17:07:50.380Z,86.70
2018-03-07T17:11:53.865Z,88.10
2018-03-07T17:15:57.747Z,90.00
2018-03-07T17:20:01.290Z,90.80
2018-03-07T17:24:05.179Z,90.80
2018-03-07T17:28:09.093Z,90.80
2018-03-07T17:32:12.983Z,90.50
2018-03-07T17:36:16.165Z,91.10
2018-03-07T17:40:19.286Z,91.20
2018-03-07T17:44:23.192Z,91.20
2018-03-07T17:48:26.311Z,90.90
2018-03-07T17:52:29.889Z,91.20
2018-03-07T17:56:33.416Z,91.30
2018-03-07T18:00:39.781Z,91.50
2018-03-07T18:04:42.969Z,91.70
2018-03-07T18:08:46.944Z,91.30
2018-03-07T18:12:50.068Z,91.50
2018-03-07T18:16:53.602Z,91.60
2018-03-07T18:20:57.115Z,91.60
2018-03-07T18:25:00.253Z,92.00
2018-03-07T18:29:04.147Z,92.00
2018-03-07T18:33:08.094Z,92.60
2018-03-07T18:37:11.595Z,92.40
2018-03-07T18:41:15.513Z,92.50
2018-03-07T18:45:19.414Z,92.60
2018-03-07T18:49:23.326Z,92.60
2018-03-07T18:53:27.200Z,92.90
2018-03-07T18:57:30.394Z,93.10
2018-03-07T19:01:34.637Z,93.50
2018-03-07T19:05:38.624Z,93.30
2018-03-07T19:09:46.441Z,93.80
2018-03-07T19:13:50.640Z,93.50
2018-03-07T19:17:54.157Z,93.60
2018-03-07T19:21:57.790Z,93.50
2018-03-07T19:28:34.291Z,93.70
2018-03-07T19:32:36.870Z,93.60
2018-03-07T19:36:39.918Z,93.50
2018-03-07T19:40:42.854Z,93.70
2018-03-07T19:44:46.539Z,93.90
2018-03-07T19:48:54.139Z,93.90
2018-03-07T19:53:05.132Z,93.90
2018-03-07T19:57:08.417Z,94.20
2018-03-07T20:01:11.564Z,94.20
2018-03-07T20:05:14.892Z,94.20
2018-03-07T20:09:18.218Z,94.00
2018-03-07T20:13:22.171Z,94.10
2018-03-07T20:17:24.724Z,93.90
2018-03-07T20:21:27.656Z,93.80
2018-03-07T20:25:31.170Z,94.20
2018-03-07T20:29:34.172Z,94.00
2018-03-07T20:33:37.100Z,94.00
2018-03-07T20:37:40.427Z,94.10
2018-03-07T20:41:45.829Z,94.20
2018-03-07T20:45:54.542Z,94.20
2018-03-07T20:49:57.117Z,94.10
2018-03-07T20:54:00.066Z,94.20
2018-03-07T20:58:03.009Z,94.10
2018-03-07T21:02:06.016Z,93.90
2018-03-07T21:06:09.067Z,94.00
2018-03-07T21:10:12.955Z,94.00
2018-03-07T21:14:16.041Z,94.20
2018-03-07T21:18:19.004Z,93.80
2018-03-07T21:22:26.846Z,93.50
2018-03-07T21:26:30.491Z,93.40
2018-03-07T21:30:34.098Z,93.50
2018-03-07T21:34:36.706Z,93.80
2018-03-07T21:38:39.560Z,93.70
2018-03-07T21:42:46.685Z,94.00
2018-03-07T21:46:50.201Z,93.60
2018-03-07T21:50:53.706Z,93.30
2018-03-07T21:54:57.358Z,93.50
2018-03-07T21:59:00.491Z,93.40
2018-03-07T22:03:03.818Z,93.40
2018-03-07T22:07:07.442Z,93.40
2018-03-07T22:11:10.062Z,93.40
2018-03-07T22:15:13.393Z,93.70
2018-03-07T22:19:16.856Z,93.50
2018-03-07T22:23:23.842Z,93.80
2018-03-07T22:27:27.160Z,93.90
2018-03-07T22:31:30.461Z,93.70
2018-03-07T22:35:37.336Z,94.00
2018-03-07T22:39:40.765Z,94.10
2018-03-07T22:43:44.088Z,93.60
2018-03-07T22:47:46.994Z,93.80
2018-03-07T22:51:50.623Z,93.90
2018-03-07T22:55:54.029Z,93.90
2018-03-07T22:59:56.980Z,94.10
2018-03-07T23:04:01.249Z,94.10
2018-03-07T23:08:05.490Z,94.20
2018-03-07T23:12:08.466Z,93.80
2018-03-07T23:16:11.876Z,93.90
2018-03-07T23:20:14.417Z,93.90
2018-03-07T23:24:17.055Z,93.90
2018-03-07T23:28:20.048Z,94.10
2018-03-07T23:32:23.103Z,94.40
2018-03-07T23:36:31.677Z,94.30
2018-03-07T23:40:34.689Z,94.10
2018-03-07T23:44:37.620Z,94.00
2018-03-07T23:48:43.019Z,93.90
2018-03-07T23:52:46.320Z,94.00
2018-03-07T23:56:48.893Z,94.10
